Terminal Aerodrome Forecast
Issued by NWS

Home | Current Version | Previous Version | Text Only | Print | Product List | Glossary On
Versions: 1 2 3 4 5 6 7 8 9 10 11 12 13
000
FTUS42 KMLB 211700
TAFTIX
TAF
KTIX 211735Z 2118/2218 VRB05KT P6SM VCTS SCT025CB
     FM212200 12007KT P6SM FEW040 FEW250
     FM220400 19002KT P6SM FEW250
     FM221400 22005KT P6SM FEW035=

USA.gov is the U.S. government's official web portal to all federal, state and local government web resources and services.